Time;durP1;ratioP1;P1;durP2;ratioP2;P2;SDS_P1;SDS_P2;PMS_P1;PMS_P2;Temp;Humidity;BMP_temperature;BMP_pressure;BME280_temperature;BME280_humidity;BME280_pressure;Samples;Min_cycle;Max_cycle;Signal;HPM_P1;HPM_P2
2021/11/06 00:00:14;;;;;;;5.68;2.15;;;;;;;15.14;75.58;100207.50;4939738;29;20031;-87
2021/11/06 00:02:40;;;;;;;3.00;2.10;;;;;;;15.13;75.07;100219.91;4940136;29;20426;-86
2021/11/06 00:05:06;;;;;;;6.45;2.10;;;;;;;15.16;74.61;100241.50;4939518;29;20051;-86
2021/11/06 00:07:32;;;;;;;5.07;1.85;;;;;;;15.24;74.08;100242.38;4939580;29;20114;-85
2021/11/06 00:09:58;;;;;;;3.28;1.73;;;;;;;15.14;74.39;100212.28;4939427;29;20122;-85
2021/11/06 00:12:23;;;;;;;2.17;1.92;;;;;;;15.10;74.89;100205.84;4939773;29;20035;-85
2021/11/06 00:14:52;;;;;;;5.57;2.42;;;;;;;15.06;74.96;100200.22;4939249;29;20037;-85
2021/11/06 00:17:17;;;;;;;4.72;2.65;;;;;;;15.29;75.11;100227.19;4939846;29;20024;-88
2021/11/06 00:19:49;;;;;;;3.85;2.58;;;;;;;15.19;74.75;100215.53;4938880;29;20055;-86
2021/11/06 00:22:17;;;;;;;6.43;2.90;;;;;;;15.12;75.67;100217.47;4939753;29;20549;-85
2021/11/06 00:24:43;;;;;;;3.40;2.58;;;;;;;15.13;75.81;100219.09;4956270;29;20089;-86
2021/11/06 00:27:08;;;;;;;5.85;2.40;;;;;;;15.12;75.45;100211.88;4939229;29;20482;-85
2021/11/06 00:29:36;;;;;;;9.27;3.05;;;;;;;15.04;75.57;100218.63;4939023;29;20035;-86
2021/11/06 00:32:02;;;;;;;4.35;2.33;;;;;;;15.07;76.05;100218.63;4938903;29;20181;-85
2021/11/06 00:34:31;;;;;;;3.95;2.20;;;;;;;15.03;76.15;100231.06;4939230;29;20032;-85
2021/11/06 00:36:56;;;;;;;4.18;2.40;;;;;;;15.02;75.65;100232.22;4938923;29;20094;-85
2021/11/06 00:39:22;;;;;;;6.47;2.65;;;;;;;15.08;75.31;100241.88;4938962;29;20039;-85
2021/11/06 00:41:48;;;;;;;2.90;2.20;;;;;;;15.09;74.98;100255.50;4939158;29;20035;-86
2021/11/06 00:44:19;;;;;;;4.05;2.10;;;;;;;15.25;74.13;100260.00;4939428;29;20062;-85
2021/11/06 00:46:50;;;;;;;5.95;2.05;;;;;;;15.09;74.48;100244.28;4939148;29;20045;-84
2021/11/06 00:49:16;;;;;;;4.15;2.30;;;;;;;15.05;75.20;100237.84;4938871;29;20031;-86
2021/11/06 00:51:41;;;;;;;5.80;2.45;;;;;;;15.05;75.50;100243.47;4939266;29;20031;-84
2021/11/06 00:54:10;;;;;;;5.43;1.88;;;;;;;15.04;75.05;100241.84;4938861;29;20514;-85
2021/11/06 00:56:41;;;;;;;3.63;2.10;;;;;;;15.06;75.15;100236.66;4938642;29;20087;-84
2021/11/06 00:59:07;;;;;;;5.40;2.05;;;;;;;15.06;75.31;100239.47;4940393;29;20101;-84
2021/11/06 01:01:37;;;;;;;3.88;2.08;;;;;;;15.07;75.02;100246.66;4939486;29;20027;-85
2021/11/06 01:04:06;;;;;;;5.20;2.30;;;;;;;14.96;75.01;100239.41;4938599;29;20475;-84
2021/11/06 01:06:37;;;;;;;6.60;2.40;;;;;;;15.04;75.57;100247.47;4938998;29;20355;-84
2021/11/06 01:09:06;;;;;;;7.47;3.50;;;;;;;15.18;74.78;100233.53;4938490;29;20039;-85
2021/11/06 01:11:35;;;;;;;5.63;3.38;;;;;;;15.10;75.52;100239.47;4938376;29;20027;-86
2021/11/06 01:14:01;;;;;;;8.18;2.90;;;;;;;15.05;76.02;100218.25;4938722;29;20042;-85
2021/11/06 01:16:27;;;;;;;7.20;2.53;;;;;;;15.05;76.61;100223.84;4938895;29;20497;-85
2021/11/06 01:18:57;;;;;;;5.35;2.65;;;;;;;15.07;76.26;100227.03;4938080;29;20114;-85
2021/11/06 01:21:22;;;;;;;3.90;2.45;;;;;;;15.00;76.58;100221.41;4939005;29;20049;-85
2021/11/06 01:23:51;;;;;;;4.47;2.10;;;;;;;14.99;77.47;100203.00;4938253;29;20117;-87
2021/11/06 01:26:17;;;;;;;6.15;2.90;;;;;;;15.00;76.89;100207.41;4955798;29;20046;-86
2021/11/06 01:28:43;;;;;;;3.80;2.72;;;;;;;15.09;76.98;100246.28;4922613;29;20035;-87
2021/11/06 01:31:09;;;;;;;5.70;2.47;;;;;;;15.24;75.74;100278.00;4938189;29;20122;-86
2021/11/06 01:33:37;;;;;;;7.30;2.25;;;;;;;15.11;76.15;100260.69;4938350;29;20137;-85
2021/11/06 01:36:03;;;;;;;3.33;2.38;;;;;;;15.04;76.90;100267.06;4938140;29;20031;-86
2021/11/06 01:38:29;;;;;;;7.72;2.95;;;;;;;15.12;75.71;100268.72;4938234;29;20038;-86
2021/11/06 01:40:55;;;;;;;4.50;2.67;;;;;;;15.08;76.12;100251.09;4938026;29;20039;-86
2021/11/06 01:43:24;;;;;;;3.35;2.40;;;;;;;14.98;76.51;100260.25;4955606;29;20039;-85
2021/11/06 01:46:01;;;;;;;2.50;1.85;;;;;;;14.99;76.38;100256.25;4938734;29;20035;-84
2021/11/06 01:48:28;;;;;;;4.72;2.83;;;;;;;15.00;77.09;100249.44;4937958;29;20074;-85
2021/11/06 01:50:54;;;;;;;5.57;3.10;;;;;;;14.85;76.29;100216.91;4937936;29;20026;-85
2021/11/06 01:53:23;;;;;;;4.35;2.30;;;;;;;14.93;76.63;100222.19;4938033;29;20027;-84
2021/11/06 01:55:51;;;;;;;4.07;2.53;;;;;;;15.04;76.53;100221.44;4938134;29;20474;-85
2021/11/06 01:58:21;;;;;;;2.60;2.38;;;;;;;15.15;75.41;100239.91;4937835;29;20031;-86
2021/11/06 02:00:47;;;;;;;4.25;2.35;;;;;;;15.09;75.96;100230.28;4955094;29;20034;-86
2021/11/06 02:03:14;;;;;;;3.28;2.25;;;;;;;15.05;75.80;100218.25;4955343;29;20031;-86
2021/11/06 02:05:43;;;;;;;4.93;1.90;;;;;;;15.01;75.84;100211.81;4938370;29;20038;-84
2021/11/06 02:08:16;;;;;;;2.55;1.80;;;;;;;15.09;75.65;100216.28;4938100;29;20384;-85
2021/11/06 02:10:42;;;;;;;2.90;2.03;;;;;;;15.03;75.57;100197.44;4937775;29;20035;-86
2021/11/06 02:13:11;;;;;;;2.88;2.03;;;;;;;15.06;75.41;100191.81;4938025;29;20035;-86
2021/11/06 02:15:37;;;;;;;4.15;2.25;;;;;;;14.91;76.10;100190.13;4938067;29;20045;-85
2021/11/06 02:18:06;;;;;;;6.10;2.78;;;;;;;15.07;75.97;100199.03;4938029;29;20100;-85
2021/11/06 02:20:32;;;;;;;4.38;1.92;;;;;;;14.95;76.11;100196.56;4938752;29;20454;-84
2021/11/06 02:22:58;;;;;;;3.22;1.92;;;;;;;14.96;75.81;100200.19;4941393;29;20027;-85
2021/11/06 02:25:24;;;;;;;6.40;2.13;;;;;;;14.92;75.97;100192.56;4941331;29;20039;-86
2021/11/06 02:27:54;;;;;;;3.63;2.22;;;;;;;14.88;76.83;100204.94;4941343;29;20032;-86
2021/11/06 02:30:23;;;;;;;1.63;1.50;;;;;;;14.87;76.98;100212.56;4958512;29;20110;-86
2021/11/06 02:35:35;;;;;;;4.38;1.83;;;;;;;14.84;77.53;100223.72;4958696;29;20098;-87
2021/11/06 02:38:04;;;;;;;5.55;1.58;;;;;;;14.80;77.56;100222.88;4941628;29;20038;-85
2021/11/06 02:40:30;;;;;;;3.28;1.67;;;;;;;14.81;77.47;100218.91;4941859;29;20451;-86
2021/11/06 02:42:55;;;;;;;2.00;1.90;;;;;;;14.81;76.77;100214.13;4941595;29;20133;-86
2021/11/06 02:45:24;;;;;;;3.97;1.55;;;;;;;14.85;75.97;100216.91;4941546;29;20031;-87
2021/11/06 02:47:52;;;;;;;3.25;2.00;;;;;;;14.78;76.89;100214.88;4941031;29;20035;-85
2021/11/06 02:50:23;;;;;;;2.28;1.85;;;;;;;14.80;76.59;100197.69;4941347;29;20386;-84
2021/11/06 02:52:52;;;;;;;6.63;3.10;;;;;;;14.80;76.73;100200.47;4941247;29;20412;-85
2021/11/06 02:55:23;;;;;;;6.90;2.17;;;;;;;14.92;76.71;100203.78;4940778;29;20090;-85
2021/11/06 02:57:50;;;;;;;1.65;1.50;;;;;;;14.89;76.90;100196.13;4940782;29;20122;-85
2021/11/06 03:00:16;;;;;;;3.88;1.77;;;;;;;14.97;76.42;100193.38;4925679;29;20035;-85
2021/11/06 03:02:43;;;;;;;6.07;1.33;;;;;;;14.87;76.33;100180.94;4942734;29;20031;-85
2021/11/06 03:05:11;;;;;;;6.55;1.95;;;;;;;14.85;76.53;100177.72;4958237;29;20023;-84
2021/11/06 03:07:41;;;;;;;3.83;1.70;;;;;;;14.81;75.68;100179.72;4941140;29;20039;-85
2021/11/06 03:10:09;;;;;;;2.10;1.60;;;;;;;14.77;76.51;100178.88;4940968;29;20122;-84
2021/11/06 03:12:38;;;;;;;8.60;1.85;;;;;;;14.82;75.68;100192.50;4940901;29;20466;-84
2021/11/06 03:15:08;;;;;;;3.40;1.63;;;;;;;14.84;75.83;100192.91;4940792;29;20062;-86
2021/11/06 03:17:37;;;;;;;1.38;1.27;;;;;;;14.86;75.97;100196.13;4940447;29;20035;-85
2021/11/06 03:20:05;;;;;;;4.07;1.42;;;;;;;14.91;75.79;100206.94;4940114;29;20059;-85
2021/11/06 03:22:33;;;;;;;5.78;2.13;;;;;;;14.93;75.59;100213.78;4940630;29;20110;-84
2021/11/06 03:25:05;;;;;;;2.63;1.58;;;;;;;14.88;75.90;100216.16;4940612;29;20031;-84
2021/11/06 03:27:33;;;;;;;2.47;1.42;;;;;;;14.86;76.23;100212.91;4958129;29;20031;-83
2021/11/06 03:30:03;;;;;;;3.33;1.75;;;;;;;14.85;76.87;100214.13;4940610;29;20493;-84
2021/11/06 03:32:32;;;;;;;3.47;1.40;;;;;;;14.80;75.95;100215.28;4938859;29;20023;-83
2021/11/06 03:34:58;;;;;;;4.20;1.25;;;;;;;14.83;76.10;100216.53;4940083;29;20034;-84
2021/11/06 03:37:26;;;;;;;2.65;1.63;;;;;;;14.80;75.68;100209.69;4940323;29;20035;-83
2021/11/06 03:39:52;;;;;;;4.30;2.35;;;;;;;14.79;76.59;100204.47;4940638;29;20497;-84
2021/11/06 03:42:20;;;;;;;3.83;3.53;;;;;;;14.84;76.38;100206.91;4940059;29;20035;-83
2021/11/06 03:44:46;;;;;;;3.53;2.42;;;;;;;14.90;76.02;100219.34;4940004;29;20042;-84
2021/11/06 03:47:12;;;;;;;3.25;2.22;;;;;;;14.79;76.82;100210.09;4940232;29;20366;-82
2021/11/06 03:49:40;;;;;;;3.35;2.13;;;;;;;14.80;77.25;100218.09;4940363;29;20331;-85
2021/11/06 03:52:07;;;;;;;3.38;1.92;;;;;;;14.76;77.25;100216.47;4939969;29;20082;-83
2021/11/06 03:54:38;;;;;;;3.55;1.92;;;;;;;14.74;76.77;100208.44;4939990;29;20046;-83
2021/11/06 03:57:04;;;;;;;2.63;1.40;;;;;;;14.76;76.95;100227.69;4939789;29;20027;-86
2021/11/06 03:59:32;;;;;;;3.70;1.70;;;;;;;14.80;77.15;100229.28;4940307;29;20047;-85
2021/11/06 04:02:02;;;;;;;2.20;1.48;;;;;;;14.77;76.73;100221.69;4939643;29;20470;-86
2021/11/06 04:04:28;;;;;;;1.65;1.55;;;;;;;14.79;76.52;100226.88;4939649;29;20094;-85
2021/11/06 04:06:56;;;;;;;3.40;1.77;;;;;;;14.80;76.42;100234.91;4956957;29;20024;-83
2021/11/06 04:09:21;;;;;;;4.72;1.92;;;;;;;14.81;76.40;100227.31;4939528;29;20071;-84
2021/11/06 04:11:50;;;;;;;2.25;2.03;;;;;;;14.79;76.37;100221.28;4939340;29;20027;-85
2021/11/06 04:14:16;;;;;;;2.88;1.83;;;;;;;14.75;76.29;100198.84;4939983;29;20529;-84
2021/11/06 04:16:42;;;;;;;1.52;1.25;;;;;;;14.70;76.62;100198.41;4939654;29;20129;-84
2021/11/06 04:19:07;;;;;;;2.95;2.40;;;;;;;14.80;76.08;100201.28;4939351;29;20414;-85
2021/11/06 04:21:36;;;;;;;4.35;2.15;;;;;;;14.86;76.17;100198.91;4939375;29;20031;-86
2021/11/06 04:24:04;;;;;;;4.43;1.70;;;;;;;14.81;76.18;100199.31;4939366;29;20043;-87
2021/11/06 04:26:32;;;;;;;3.83;2.25;;;;;;;14.77;76.84;100195.69;4939433;29;20054;-84
2021/11/06 04:28:57;;;;;;;3.65;2.00;;;;;;;14.76;77.04;100206.09;4939761;29;20037;-84
2021/11/06 04:31:23;;;;;;;3.15;1.90;;;;;;;14.81;76.36;100207.72;4939093;29;20218;-84
2021/11/06 04:33:52;;;;;;;3.50;1.90;;;;;;;14.77;77.34;100212.47;4938982;29;20034;-82
2021/11/06 04:36:20;;;;;;;3.25;2.20;;;;;;;14.75;77.54;100220.47;4939239;29;20041;-83
2021/11/06 04:38:52;;;;;;;3.50;1.50;;;;;;;14.80;76.87;100208.88;4939445;29;20035;-83
2021/11/06 04:41:17;;;;;;;3.33;1.50;;;;;;;14.79;77.33;100216.50;4939031;29;20095;-85
2021/11/06 04:43:48;;;;;;;3.58;2.15;;;;;;;14.74;76.41;100207.66;4939063;29;20031;-84
2021/11/06 04:46:20;;;;;;;6.20;2.15;;;;;;;14.36;76.97;100156.56;4938828;29;20042;-84
2021/11/06 04:48:46;;;;;;;4.28;2.97;;;;;;;14.75;76.62;100209.25;4939299;29;20027;-83
2021/11/06 04:51:14;;;;;;;5.05;4.45;;;;;;;14.73;76.67;100206.06;4938789;29;20050;-84
2021/11/06 04:53:42;;;;;;;5.85;3.83;;;;;;;14.74;76.59;100214.06;4939191;29;20031;-83
2021/11/06 04:56:11;;;;;;;8.35;5.95;;;;;;;14.76;76.68;100200.47;4938695;29;20028;-86
2021/11/06 04:58:40;;;;;;;6.47;5.07;;;;;;;14.69;76.72;100194.81;4938560;29;20031;-85
2021/11/06 05:01:08;;;;;;;7.45;4.35;;;;;;;14.64;77.20;100187.59;4938578;29;20042;-85
2021/11/06 05:03:34;;;;;;;10.98;5.30;;;;;;;14.67;77.37;100192.41;4939082;29;20035;-84
2021/11/06 05:06:02;;;;;;;6.78;4.90;;;;;;;14.69;77.50;100206.03;4939546;29;20398;-84
2021/11/06 05:08:30;;;;;;;5.35;3.38;;;;;;;14.66;77.39;100204.81;4955722;29;20462;-86
2021/11/06 05:10:56;;;;;;;3.65;2.60;;;;;;;14.72;77.66;100204.44;4938739;29;20031;-85
2021/11/06 05:13:21;;;;;;;4.55;1.90;;;;;;;14.74;76.91;100207.66;4955916;29;20058;-83
2021/11/06 05:15:50;;;;;;;6.10;2.55;;;;;;;14.81;76.05;100202.91;4938344;29;20063;-85
2021/11/06 05:18:17;;;;;;;3.95;1.90;;;;;;;14.83;75.82;100194.09;4938079;29;20055;-84
2021/11/06 05:20:44;;;;;;;1.70;1.60;;;;;;;14.77;76.63;100196.47;4955827;29;20481;-85
2021/11/06 05:23:12;;;;;;;2.00;1.80;;;;;;;14.81;76.11;100196.50;4938586;29;20489;-85
2021/11/06 05:25:38;;;;;;;3.80;1.80;;;;;;;14.74;76.47;100190.84;4938488;29;20028;-84
2021/11/06 05:28:04;;;;;;;3.60;1.80;;;;;;;14.80;76.99;100195.69;4938188;29;20054;-85
2021/11/06 05:30:30;;;;;;;1.88;1.73;;;;;;;14.97;75.32;100197.00;4955637;29;20058;-84
2021/11/06 05:32:55;;;;;;;4.50;1.80;;;;;;;14.84;75.40;100202.13;4955645;29;20115;-84
2021/11/06 05:35:21;;;;;;;8.02;2.58;;;;;;;14.81;76.26;100202.13;4938090;29;20023;-85
2021/11/06 05:37:47;;;;;;;3.47;2.13;;;;;;;14.80;76.33;100215.28;4938044;29;20042;-83
2021/11/06 05:40:18;;;;;;;5.18;2.00;;;;;;;14.78;76.54;100208.47;4937937;29;20031;-85
2021/11/06 05:42:46;;;;;;;7.22;2.47;;;;;;;14.74;77.22;100230.06;4937963;29;20065;-85
2021/11/06 05:45:15;;;;;;;2.78;1.83;;;;;;;14.67;77.38;100228.03;4938013;29;20025;-86
2021/11/06 05:47:41;;;;;;;3.67;2.22;;;;;;;14.67;77.61;100231.63;4938457;29;20058;-88
2021/11/06 05:50:09;;;;;;;3.65;2.35;;;;;;;14.72;77.66;100236.06;4938156;29;20024;-85
2021/11/06 05:52:39;;;;;;;4.28;2.10;;;;;;;14.73;77.92;100239.66;4955848;29;20023;-84
2021/11/06 05:55:08;;;;;;;4.97;2.28;;;;;;;14.68;77.62;100230.41;4938218;29;20127;-84
2021/11/06 05:57:37;;;;;;;2.53;1.98;;;;;;;14.68;78.38;100241.63;4941935;29;20205;-83
2021/11/06 06:00:12;;;;;;;7.13;2.33;;;;;;;14.67;78.00;100237.22;4942096;29;20127;-85
2021/11/06 06:02:41;;;;;;;3.70;2.40;;;;;;;14.73;77.73;100246.06;4942189;29;20541;-85
2021/11/06 06:05:08;;;;;;;4.00;2.30;;;;;;;14.77;76.99;100246.09;4941728;29;20031;-83
2021/11/06 06:07:35;;;;;;;9.95;2.35;;;;;;;14.80;76.75;100254.50;4959749;29;20027;-84
2021/11/06 06:10:01;;;;;;;3.50;2.03;;;;;;;14.80;76.71;100251.69;4941985;29;20463;-82
2021/11/06 06:12:28;;;;;;;6.45;1.70;;;;;;;14.88;75.98;100255.38;4958607;29;20039;-83
2021/11/06 06:14:56;;;;;;;6.97;1.60;;;;;;;15.07;74.64;100274.69;4941584;29;20122;-84
2021/11/06 06:17:22;;;;;;;6.32;1.95;;;;;;;15.11;73.84;100266.31;4941611;29;20089;-83
2021/11/06 06:19:50;;;;;;;4.88;1.90;;;;;;;15.13;73.81;100264.72;4941349;29;20138;-84
2021/11/06 06:22:16;;;;;;;2.42;1.73;;;;;;;15.10;74.31;100271.09;4941781;29;20028;-83
2021/11/06 06:24:48;;;;;;;6.60;1.92;;;;;;;15.27;73.69;100285.63;4941780;29;20050;-84
2021/11/06 06:27:14;;;;;;;6.07;1.53;;;;;;;15.28;73.03;100284.41;4941542;29;20042;-85
2021/11/06 06:29:43;;;;;;;4.30;1.77;;;;;;;15.24;73.38;100287.22;4941328;29;20027;-85
2021/11/06 06:32:08;;;;;;;3.67;1.58;;;;;;;15.20;73.59;100292.78;4941138;29;20041;-84
2021/11/06 06:34:34;;;;;;;13.07;2.10;;;;;;;15.36;72.56;100283.28;4941103;29;20035;-85
2021/11/06 06:37:03;;;;;;;2.40;2.20;;;;;;;15.37;72.66;100284.88;4941157;29;20402;-83
2021/11/06 06:39:32;;;;;;;4.00;2.45;;;;;;;15.41;72.22;100280.09;4941108;29;20035;-84
2021/11/06 06:41:57;;;;;;;2.38;2.17;;;;;;;15.50;72.09;100288.94;4941479;29;20402;-85
2021/11/06 06:44:26;;;;;;;2.67;2.10;;;;;;;15.52;72.31;100275.31;4941389;29;20031;-85
2021/11/06 06:46:55;;;;;;;6.20;3.65;;;;;;;15.52;71.72;100286.53;4941251;29;20047;-84
2021/11/06 06:49:20;;;;;;;3.83;3.33;;;;;;;15.57;71.70;100299.38;4940993;29;20031;-82
2021/11/06 06:51:52;;;;;;;4.68;2.05;;;;;;;15.65;70.87;100301.84;4941648;29;20039;-82
2021/11/06 06:54:20;;;;;;;5.88;2.88;;;;;;;15.77;69.78;100305.53;4940907;29;20505;-80
2021/11/06 06:56:49;;;;;;;6.85;2.05;;;;;;;15.87;69.46;100305.56;4940980;29;20046;-81
2021/11/06 06:59:20;;;;;;;2.80;1.75;;;;;;;15.95;69.41;100318.38;4941097;29;20386;-83
2021/11/06 07:01:49;;;;;;;6.28;3.20;;;;;;;16.02;70.05;100320.41;4940837;29;20023;-81
2021/11/06 07:04:15;;;;;;;5.82;2.60;;;;;;;16.11;69.58;100323.66;4941064;29;20086;-81
2021/11/06 07:06:47;;;;;;;4.60;1.88;;;;;;;16.21;69.04;100339.72;4940728;29;20035;-82
2021/11/06 07:09:15;;;;;;;5.47;2.88;;;;;;;16.31;69.37;100345.75;4940824;29;20082;-81
2021/11/06 07:11:46;;;;;;;5.15;2.20;;;;;;;16.41;68.22;100347.78;4940731;29;20039;-82
2021/11/06 07:14:12;;;;;;;2.63;1.52;;;;;;;16.53;66.68;100344.59;4939724;29;20031;-83
2021/11/06 07:16:38;;;;;;;8.63;2.08;;;;;;;16.65;66.44;100351.81;4940514;29;20035;-82
2021/11/06 07:19:04;;;;;;;12.27;2.20;;;;;;;16.79;66.43;100348.25;4940344;29;20063;-82
2021/11/06 07:21:30;;;;;;;4.32;1.52;;;;;;;16.83;66.25;100352.69;4939992;29;20074;-81
2021/11/06 07:23:56;;;;;;;5.57;1.80;;;;;;;16.86;65.88;100348.25;4939917;29;20031;-81
2021/11/06 07:26:22;;;;;;;5.97;2.58;;;;;;;16.97;65.37;100349.03;4940390;29;20446;-81
2021/11/06 07:28:47;;;;;;;3.05;1.55;;;;;;;16.99;65.23;100350.25;4940343;29;20032;-82
2021/11/06 07:31:16;;;;;;;4.97;1.85;;;;;;;17.15;65.17;100349.84;4940557;29;20034;-82
2021/11/06 07:33:48;;;;;;;6.60;2.28;;;;;;;17.21;64.35;100348.22;4940212;29;20035;-81
2021/11/06 07:36:15;;;;;;;5.57;2.67;;;;;;;17.37;64.03;100352.63;4939644;29;20070;-81
2021/11/06 07:38:41;;;;;;;6.43;2.10;;;;;;;17.50;64.02;100340.50;4939512;29;20083;-81
2021/11/06 07:41:07;;;;;;;5.40;2.78;;;;;;;17.64;63.49;100348.13;4939101;29;20035;-78
2021/11/06 07:43:37;;;;;;;2.67;1.90;;;;;;;17.76;63.58;100355.34;4957503;29;20466;-81
2021/11/06 07:46:06;;;;;;;4.53;2.00;;;;;;;17.83;63.15;100360.13;4939788;29;20038;-82
2021/11/06 07:48:32;;;;;;;3.90;2.03;;;;;;;17.92;62.85;100366.13;4939764;29;20094;-81
2021/11/06 07:51:00;;;;;;;3.30;1.83;;;;;;;17.87;62.31;100352.47;4939547;29;20036;-82
2021/11/06 07:53:32;;;;;;;2.97;1.63;;;;;;;18.06;60.13;100360.44;4957374;29;20097;-82
2021/11/06 07:56:01;;;;;;;3.35;1.67;;;;;;;17.92;60.42;100366.13;4939854;29;20118;-81
2021/11/06 07:58:29;;;;;;;6.85;2.00;;;;;;;17.87;60.74;100372.97;4939349;29;20035;-82
2021/11/06 08:00:57;;;;;;;2.92;2.15;;;;;;;17.96;59.82;100378.19;4955775;29;20036;-85
2021/11/06 08:03:26;;;;;;;2.35;1.85;;;;;;;17.92;61.02;100380.22;4939506;29;20042;-81
2021/11/06 08:05:55;;;;;;;4.82;1.73;;;;;;;17.84;60.33;100384.25;4939445;29;20074;-80
2021/11/06 08:08:24;;;;;;;8.07;2.58;;;;;;;17.76;61.16;100370.22;4939588;29;20035;-82
2021/11/06 08:10:52;;;;;;;6.22;2.03;;;;;;;17.72;60.84;100382.66;4939363;29;20126;-81
2021/11/06 08:13:17;;;;;;;3.50;1.70;;;;;;;17.74;60.83;100411.25;4938370;29;20504;-80
2021/11/06 08:15:43;;;;;;;3.88;1.85;;;;;;;17.83;60.35;100399.53;4939213;29;20178;-82
2021/11/06 08:18:09;;;;;;;2.78;1.48;;;;;;;17.89;60.69;100389.44;4955999;28;20074;-80
2021/11/06 08:20:40;;;;;;;4.55;2.13;;;;;;;17.70;60.99;100365.38;4938593;29;20062;-85
2021/11/06 08:23:09;;;;;;;2.22;1.85;;;;;;;17.84;61.39;100399.13;4939126;29;20034;-80
2021/11/06 08:25:34;;;;;;;6.20;3.17;;;;;;;17.79;61.71;100406.00;4938827;29;20074;-82
2021/11/06 08:28:10;;;;;;;5.07;2.22;;;;;;;17.81;62.00;100397.13;4939671;29;20121;-82
2021/11/06 08:30:39;;;;;;;3.53;1.95;;;;;;;17.85;61.62;100389.50;4939029;29;20028;-80
2021/11/06 08:33:07;;;;;;;7.97;2.40;;;;;;;17.78;62.25;100400.75;4938943;29;20041;-80
2021/11/06 08:35:39;;;;;;;7.88;2.30;;;;;;;17.92;61.88;100394.28;4938745;29;20034;-81
2021/11/06 08:38:09;;;;;;;5.70;2.45;;;;;;;18.09;61.62;100379.31;4939127;29;20489;-81
2021/11/06 08:40:38;;;;;;;6.13;2.50;;;;;;;18.24;60.83;100380.84;4938836;29;20063;-81
2021/11/06 08:43:07;;;;;;;5.05;2.33;;;;;;;18.30;60.58;100379.22;4939214;29;20035;-81
2021/11/06 08:45:37;;;;;;;4.18;2.10;;;;;;;18.49;60.25;100400.44;4938696;29;20023;-79
2021/11/06 08:48:03;;;;;;;6.10;1.95;;;;;;;18.52;59.69;100405.25;4935912;29;20058;-81
2021/11/06 08:50:31;;;;;;;2.78;1.90;;;;;;;18.54;60.40;100402.84;4939304;29;20134;-80
2021/11/06 08:52:58;;;;;;;4.85;2.00;;;;;;;18.57;59.69;100406.81;4938752;29;20031;-82
2021/11/06 08:55:28;;;;;;;9.65;2.58;;;;;;;18.54;60.36;100416.91;4938535;29;20031;-82
2021/11/06 08:57:54;;;;;;;4.78;2.20;;;;;;;18.44;60.11;100425.44;4939120;29;20035;-80
2021/11/06 09:00:32;;;;;;;8.73;2.45;;;;;;;18.38;60.58;100427.88;4938440;29;20417;-82
2021/11/06 09:03:04;;;;;;;9.32;2.88;;;;;;;18.46;60.47;100428.63;4938849;29;20404;-81
2021/11/06 09:05:30;;;;;;;7.15;2.85;;;;;;;18.38;60.91;100436.31;4955333;29;20066;-81
2021/11/06 09:07:59;;;;;;;6.65;2.28;;;;;;;18.32;61.62;100424.69;4938434;29;20027;-82
2021/11/06 09:10:25;;;;;;;4.72;2.63;;;;;;;18.25;61.98;100446.44;4938421;29;20129;-81
2021/11/06 09:12:52;;;;;;;7.43;2.08;;;;;;;18.20;61.21;100433.56;4938866;29;20051;-82
2021/11/06 09:15:18;;;;;;;6.35;2.25;;;;;;;18.22;61.52;100436.81;4955469;29;20032;-83
2021/11/06 09:17:46;;;;;;;2.97;1.83;;;;;;;18.14;61.98;100445.69;4955880;29;20031;-81
2021/11/06 09:20:18;;;;;;;4.57;1.77;;;;;;;18.20;61.27;100450.47;4937956;29;20047;-86
2021/11/06 09:22:48;;;;;;;2.63;2.00;;;;;;;18.22;60.92;100436.81;4938105;29;20093;-81
2021/11/06 09:25:19;;;;;;;7.93;2.92;;;;;;;18.18;60.75;100450.09;4922572;29;20188;-81
2021/11/06 09:27:45;;;;;;;6.22;2.00;;;;;;;18.10;60.99;100437.22;4955833;29;20031;-81
2021/11/06 09:30:12;;;;;;;4.13;2.00;;;;;;;18.18;61.33;100471.81;4938141;29;20387;-80
2021/11/06 09:32:38;;;;;;;8.88;2.30;;;;;;;18.17;61.36;100461.78;4938546;29;20102;-82
2021/11/06 09:35:04;;;;;;;4.15;2.00;;;;;;;18.13;61.35;100458.16;4937991;29;20110;-82
2021/11/06 09:37:30;;;;;;;7.05;2.50;;;;;;;18.16;61.42;100462.94;4938040;29;20122;-82
2021/11/06 09:39:56;;;;;;;6.03;2.33;;;;;;;18.05;61.50;100415.13;4955458;29;20106;-81
2021/11/06 09:42:22;;;;;;;6.97;2.22;;;;;;;17.92;61.91;100335.16;4938517;29;20078;-84
2021/11/06 09:44:50;;;;;;;6.00;2.65;;;;;;;18.03;62.23;100350.00;4938551;29;20494;-80
2021/11/06 09:47:17;;;;;;;6.50;3.58;;;;;;;18.09;61.76;100356.78;4941888;29;20034;-79
2021/11/06 09:49:45;;;;;;;5.30;2.85;;;;;;;18.11;61.78;100407.88;4941093;29;20110;-82
2021/11/06 09:52:17;;;;;;;7.65;3.65;;;;;;;18.26;61.36;100476.19;4938625;29;20031;-82
2021/11/06 09:54:43;;;;;;;8.65;3.72;;;;;;;18.33;61.50;100488.25;4937824;29;20035;-81
2021/11/06 09:57:12;;;;;;;12.73;3.58;;;;;;;18.46;61.09;100470.88;4937803;29;20024;-81
2021/11/06 09:59:41;;;;;;;7.00;2.78;;;;;;;18.54;60.29;100486.56;4938071;29;20050;-82
2021/11/06 10:02:10;;;;;;;8.63;3.42;;;;;;;18.62;60.51;100493.75;4938217;29;20089;-82
2021/11/06 10:04:38;;;;;;;3.70;2.72;;;;;;;18.70;59.84;100494.56;4937755;29;20039;-82
2021/11/06 10:07:39;;;;;;;6.85;2.60;;;;;;;18.98;58.37;100482.31;4938551;29;20031;-81
2021/11/06 10:10:10;;;;;;;14.10;3.22;;;;;;;19.00;58.59;100491.13;4924376;29;20039;-81
2021/11/06 10:12:54;;;;;;;8.82;2.70;;;;;;;19.19;57.74;100498.28;4937740;29;20501;-81
2021/11/06 10:15:25;;;;;;;7.63;2.60;;;;;;;19.26;57.56;100503.84;4954816;29;20034;-83
2021/11/06 10:17:54;;;;;;;6.20;2.90;;;;;;;19.16;58.45;100516.81;4937566;29;20031;-80
2021/11/06 10:20:32;;;;;;;4.13;2.70;;;;;;;19.05;59.86;100524.53;4937432;29;20061;-81
2021/11/06 10:23:07;;;;;;;7.47;2.80;;;;;;;18.91;60.52;100544.34;4937346;29;20032;-84
2021/11/06 10:25:38;;;;;;;7.72;2.97;;;;;;;18.63;61.47;100528.38;4954626;29;20027;-84
2021/11/06 10:28:07;;;;;;;9.23;3.17;;;;;;;18.59;62.66;100550.94;4937636;29;20090;-84
2021/11/06 10:30:38;;;;;;;3.72;2.70;;;;;;;18.43;62.49;100561.84;4955066;29;20028;-83
2021/11/06 10:33:19;;;;;;;8.30;2.85;;;;;;;18.26;62.41;100550.22;4956048;29;20031;-81
2021/11/06 10:35:51;;;;;;;5.68;2.67;;;;;;;18.16;63.23;100525.72;4942446;29;20157;-80
2021/11/06 10:38:22;;;;;;;4.53;2.70;;;;;;;18.04;63.96;100514.88;4946852;29;20035;-80
2021/11/06 10:40:55;;;;;;;7.28;2.55;;;;;;;17.96;64.32;100511.28;4949968;29;20031;-80
2021/11/06 10:43:23;;;;;;;3.57;2.23;;;;;;;17.96;64.07;100535.84;4966510;29;20023;-80
2021/11/06 10:45:54;;;;;;;4.78;2.50;;;;;;;17.95;64.60;100539.84;4960212;29;20035;-80
2021/11/06 10:48:25;;;;;;;7.57;2.75;;;;;;;17.79;66.28;100559.97;4951673;29;20438;-88
2021/11/06 10:51:02;;;;;;;4.40;2.67;;;;;;;17.67;67.72;100580.03;4941552;29;20358;-91
2021/11/06 10:53:31;;;;;;;7.95;3.10;;;;;;;17.49;69.42;100569.59;4940972;29;20038;-89
2021/11/06 10:56:03;;;;;;;7.53;3.45;;;;;;;17.46;69.75;100595.69;4941145;29;20054;-90
2021/11/06 10:58:32;;;;;;;7.43;3.15;;;;;;;17.35;70.60;100630.63;4959420;29;20042;-91
2021/11/06 11:01:06;;;;;;;4.80;2.80;;;;;;;17.28;72.49;100632.22;4943274;29;20497;-93
2021/11/06 11:03:40;;;;;;;6.53;3.67;;;;;;;17.29;73.66;100635.84;4943151;29;20033;-93
2021/11/06 11:06:28;;;;;;;7.63;4.05;;;;;;;17.01;74.83;100656.25;4943583;29;20031;-92
2021/11/06 11:09:03;;;;;;;9.00;3.88;;;;;;;16.98;74.62;100642.97;4960338;29;20090;-91
2021/11/06 11:11:35;;;;;;;7.90;4.15;;;;;;;16.84;75.21;100592.34;4955809;29;20070;-92
2021/11/06 11:14:08;;;;;;;5.23;3.17;;;;;;;16.82;76.65;100632.06;4942481;29;20027;-93
2021/11/06 11:16:38;;;;;;;5.15;3.35;;;;;;;16.58;77.55;100615.88;4941387;29;20038;-92
2021/11/06 11:19:08;;;;;;;5.35;4.45;;;;;;;16.67;78.49;100636.78;4959745;29;20062;-94
2021/11/06 11:21:41;;;;;;;8.90;4.07;;;;;;;16.54;79.76;100627.06;4944116;29;20066;-87
2021/11/06 11:45:39;;;;;;;6.45;3.92;;;;;;;15.83;84.23;100576.06;5077654;23;20137;-90
2021/11/06 11:48:10;;;;;;;5.15;4.05;;;;;;;16.02;84.15;100631.94;4958384;29;20063;-90
2021/11/06 11:50:42;;;;;;;4.75;4.22;;;;;;;16.06;84.29;100641.19;4941380;29;20038;-92
2021/11/06 11:53:12;;;;;;;7.93;4.30;;;;;;;15.90;84.93;100615.41;4941505;29;20027;-94